sensor_id;sensor_type;location;lat;lon;timestamp;temperature;humidity
3940;DHT22;1984;48.312;9.244;2023-06-26T00:02:17;15.70;99.90
3940;DHT22;1984;48.312;9.244;2023-06-26T00:04:43;15.70;99.90
3940;DHT22;1984;48.312;9.244;2023-06-26T00:07:09;15.60;99.90
3940;DHT22;1984;48.312;9.244;2023-06-26T00:09:35;15.60;99.90
3940;DHT22;1984;48.312;9.244;2023-06-26T00:12:01;15.60;99.90
3940;DHT22;1984;48.312;9.244;2023-06-26T00:14:27;15.50;99.90
3940;DHT22;1984;48.312;9.244;2023-06-26T00:16:52;15.50;99.90
3940;DHT22;1984;48.312;9.244;2023-06-26T00:19:18;15.50;99.90
3940;DHT22;1984;48.312;9.244;2023-06-26T00:21:44;15.50;99.90
3940;DHT22;1984;48.312;9.244;2023-06-26T00:24:16;15.50;99.90
3940;DHT22;1984;48.312;9.244;2023-06-26T00:26:42;15.30;99.90
3940;DHT22;1984;48.312;9.244;2023-06-26T00:29:08;15.20;99.90
3940;DHT22;1984;48.312;9.244;2023-06-26T00:31:33;15.20;99.90
3940;DHT22;1984;48.312;9.244;2023-06-26T00:34:00;15.20;99.90
3940;DHT22;1984;48.312;9.244;2023-06-26T00:36:26;15.20;99.90
3940;DHT22;1984;48.312;9.244;2023-06-26T00:38:52;15.10;99.90
3940;DHT22;1984;48.312;9.244;2023-06-26T00:41:17;15.20;99.90
3940;DHT22;1984;48.312;9.244;2023-06-26T00:43:43;15.20;99.90
3940;DHT22;1984;48.312;9.244;2023-06-26T00:46:10;15.10;99.90
3940;DHT22;1984;48.312;9.244;2023-06-26T00:48:37;15.20;99.90
3940;DHT22;1984;48.312;9.244;2023-06-26T00:51:03;15.20;99.90
3940;DHT22;1984;48.312;9.244;2023-06-26T00:53:29;15.20;99.90
3940;DHT22;1984;48.312;9.244;2023-06-26T00:55:55;15.20;99.90
3940;DHT22;1984;48.312;9.244;2023-06-26T00:58:24;15.20;99.90
3940;DHT22;1984;48.312;9.244;2023-06-26T01:00:51;15.10;99.90
3940;DHT22;1984;48.312;9.244;2023-06-26T01:03:17;15.10;99.90
3940;DHT22;1984;48.312;9.244;2023-06-26T01:05:42;15.10;99.90
3940;DHT22;1984;48.312;9.244;2023-06-26T01:08:12;15.00;99.90
3940;DHT22;1984;48.312;9.244;2023-06-26T01:10:38;15.00;99.90
3940;DHT22;1984;48.312;9.244;2023-06-26T01:13:03;15.00;99.90
3940;DHT22;1984;48.312;9.244;2023-06-26T01:15:29;15.00;99.90
3940;DHT22;1984;48.312;9.244;2023-06-26T01:17:55;15.00;99.90
3940;DHT22;1984;48.312;9.244;2023-06-26T01:20:25;14.90;99.90
3940;DHT22;1984;48.312;9.244;2023-06-26T01:28:13;14.70;99.90
3940;DHT22;1984;48.312;9.244;2023-06-26T01:30:42;14.60;99.90
3940;DHT22;1984;48.312;9.244;2023-06-26T01:33:08;14.60;99.90
3940;DHT22;1984;48.312;9.244;2023-06-26T01:35:34;14.60;99.90
3940;DHT22;1984;48.312;9.244;2023-06-26T01:38:17;14.70;99.90
3940;DHT22;1984;48.312;9.244;2023-06-26T01:40:43;14.60;99.90
3940;DHT22;1984;48.312;9.244;2023-06-26T01:43:18;14.70;99.90
3940;DHT22;1984;48.312;9.244;2023-06-26T01:45:48;14.70;99.90
3940;DHT22;1984;48.312;9.244;2023-06-26T01:48:16;14.70;99.90
3940;DHT22;1984;48.312;9.244;2023-06-26T01:50:44;14.70;99.90
3940;DHT22;1984;48.312;9.244;2023-06-26T01:53:13;14.60;99.90
3940;DHT22;1984;48.312;9.244;2023-06-26T01:55:53;14.50;99.90
3940;DHT22;1984;48.312;9.244;2023-06-26T01:58:23;14.50;99.90
3940;DHT22;1984;48.312;9.244;2023-06-26T02:00:49;14.40;99.90
3940;DHT22;1984;48.312;9.244;2023-06-26T02:03:14;14.40;99.90
3940;DHT22;1984;48.312;9.244;2023-06-26T02:05:40;14.40;99.90
3940;DHT22;1984;48.312;9.244;2023-06-26T02:08:08;14.40;99.90
3940;DHT22;1984;48.312;9.244;2023-06-26T02:10:33;14.40;99.90
3940;DHT22;1984;48.312;9.244;2023-06-26T02:13:00;14.40;99.90
3940;DHT22;1984;48.312;9.244;2023-06-26T02:15:26;14.40;99.90
3940;DHT22;1984;48.312;9.244;2023-06-26T02:17:51;14.40;99.90
3940;DHT22;1984;48.312;9.244;2023-06-26T02:20:17;14.30;99.90
3940;DHT22;1984;48.312;9.244;2023-06-26T02:22:42;14.20;99.90
3940;DHT22;1984;48.312;9.244;2023-06-26T02:25:09;14.20;99.90
3940;DHT22;1984;48.312;9.244;2023-06-26T02:27:35;14.20;99.90
3940;DHT22;1984;48.312;9.244;2023-06-26T02:30:01;14.20;99.90
3940;DHT22;1984;48.312;9.244;2023-06-26T02:32:26;14.20;99.90
3940;DHT22;1984;48.312;9.244;2023-06-26T02:34:52;14.20;99.90
3940;DHT22;1984;48.312;9.244;2023-06-26T02:37:19;14.10;99.90
3940;DHT22;1984;48.312;9.244;2023-06-26T02:39:44;14.20;99.90
3940;DHT22;1984;48.312;9.244;2023-06-26T02:42:10;14.20;99.90
3940;DHT22;1984;48.312;9.244;2023-06-26T02:44:35;14.20;99.90
3940;DHT22;1984;48.312;9.244;2023-06-26T02:47:01;14.10;99.90
3940;DHT22;1984;48.312;9.244;2023-06-26T02:49:26;14.20;99.90
3940;DHT22;1984;48.312;9.244;2023-06-26T02:51:52;14.10;99.90
3940;DHT22;1984;48.312;9.244;2023-06-26T02:54:17;14.10;99.90
3940;DHT22;1984;48.312;9.244;2023-06-26T02:56:43;14.10;99.90
3940;DHT22;1984;48.312;9.244;2023-06-26T02:59:08;14.10;99.90
3940;DHT22;1984;48.312;9.244;2023-06-26T03:01:34;13.90;99.90
3940;DHT22;1984;48.312;9.244;2023-06-26T03:03:59;13.90;99.90
3940;DHT22;1984;48.312;9.244;2023-06-26T03:06:26;13.90;99.90
3940;DHT22;1984;48.312;9.244;2023-06-26T03:08:53;13.90;99.90
3940;DHT22;1984;48.312;9.244;2023-06-26T03:11:19;13.90;99.90
3940;DHT22;1984;48.312;9.244;2023-06-26T03:13:44;13.90;99.90
3940;DHT22;1984;48.312;9.244;2023-06-26T03:16:10;13.90;99.90
3940;DHT22;1984;48.312;9.244;2023-06-26T03:18:36;13.90;99.90
3940;DHT22;1984;48.312;9.244;2023-06-26T03:21:01;14.00;99.90
3940;DHT22;1984;48.312;9.244;2023-06-26T03:23:27;13.90;99.90
3940;DHT22;1984;48.312;9.244;2023-06-26T03:25:53;13.90;99.90
3940;DHT22;1984;48.312;9.244;2023-06-26T03:28:18;13.90;99.90
3940;DHT22;1984;48.312;9.244;2023-06-26T03:30:44;14.00;99.90
3940;DHT22;1984;48.312;9.244;2023-06-26T03:33:10;14.00;99.90
3940;DHT22;1984;48.312;9.244;2023-06-26T03:35:35;14.00;99.90
3940;DHT22;1984;48.312;9.244;2023-06-26T03:38:01;14.00;99.90
3940;DHT22;1984;48.312;9.244;2023-06-26T03:40:27;14.00;99.90
3940;DHT22;1984;48.312;9.244;2023-06-26T03:42:52;14.10;99.90
3940;DHT22;1984;48.312;9.244;2023-06-26T03:45:18;14.10;99.90
3940;DHT22;1984;48.312;9.244;2023-06-26T03:47:44;14.10;99.90
3940;DHT22;1984;48.312;9.244;2023-06-26T03:50:12;14.10;99.90
3940;DHT22;1984;48.312;9.244;2023-06-26T03:52:37;14.00;99.90
3940;DHT22;1984;48.312;9.244;2023-06-26T03:55:03;14.00;99.90
3940;DHT22;1984;48.312;9.244;2023-06-26T03:57:29;14.00;99.90
3940;DHT22;1984;48.312;9.244;2023-06-26T03:59:54;14.00;99.90
3940;DHT22;1984;48.312;9.244;2023-06-26T04:02:20;14.00;99.90
3940;DHT22;1984;48.312;9.244;2023-06-26T04:04:45;14.00;99.90
3940;DHT22;1984;48.312;9.244;2023-06-26T04:07:11;14.00;99.90
3940;DHT22;1984;48.312;9.244;2023-06-26T04:09:36;14.00;99.90
3940;DHT22;1984;48.312;9.244;2023-06-26T04:12:02;14.10;99.90
3940;DHT22;1984;48.312;9.244;2023-06-26T04:14:28;14.10;99.90
3940;DHT22;1984;48.312;9.244;2023-06-26T04:16:54;14.20;99.90
3940;DHT22;1984;48.312;9.244;2023-06-26T04:19:19;14.20;99.90
3940;DHT22;1984;48.312;9.244;2023-06-26T04:21:45;14.30;99.90
3940;DHT22;1984;48.312;9.244;2023-06-26T04:24:10;14.30;99.90
3940;DHT22;1984;48.312;9.244;2023-06-26T04:26:36;14.40;99.90
3940;DHT22;1984;48.312;9.244;2023-06-26T04:29:02;14.40;99.90
3940;DHT22;1984;48.312;9.244;2023-06-26T04:31:28;14.40;99.90
3940;DHT22;1984;48.312;9.244;2023-06-26T04:33:54;14.50;99.90
3940;DHT22;1984;48.312;9.244;2023-06-26T04:36:20;14.60;99.90
3940;DHT22;1984;48.312;9.244;2023-06-26T04:38:46;14.60;99.90
3940;DHT22;1984;48.312;9.244;2023-06-26T04:41:13;14.70;99.90
3940;DHT22;1984;48.312;9.244;2023-06-26T04:43:39;14.90;99.90
3940;DHT22;1984;48.312;9.244;2023-06-26T04:46:05;15.00;99.90
3940;DHT22;1984;48.312;9.244;2023-06-26T04:48:31;15.10;99.90
3940;DHT22;1984;48.312;9.244;2023-06-26T04:50:56;15.10;99.90
3940;DHT22;1984;48.312;9.244;2023-06-26T04:53:24;15.10;99.90
3940;DHT22;1984;48.312;9.244;2023-06-26T04:55:51;15.10;99.90
3940;DHT22;1984;48.312;9.244;2023-06-26T04:58:16;15.30;99.90
3940;DHT22;1984;48.312;9.244;2023-06-26T05:00:42;15.40;99.90
3940;DHT22;1984;48.312;9.244;2023-06-26T05:03:11;15.50;99.90
3940;DHT22;1984;48.312;9.244;2023-06-26T05:05:37;15.50;99.90
3940;DHT22;1984;48.312;9.244;2023-06-26T05:08:17;15.60;99.90
3940;DHT22;1984;48.312;9.244;2023-06-26T05:10:44;15.70;99.90
3940;DHT22;1984;48.312;9.244;2023-06-26T05:13:10;15.90;99.90
3940;DHT22;1984;48.312;9.244;2023-06-26T05:15:35;16.00;99.90
3940;DHT22;1984;48.312;9.244;2023-06-26T05:18:01;16.00;99.90
3940;DHT22;1984;48.312;9.244;2023-06-26T05:20:26;16.00;99.90
3940;DHT22;1984;48.312;9.244;2023-06-26T05:22:52;16.20;99.90
3940;DHT22;1984;48.312;9.244;2023-06-26T05:25:18;16.30;99.90
3940;DHT22;1984;48.312;9.244;2023-06-26T05:27:47;16.40;99.90
3940;DHT22;1984;48.312;9.244;2023-06-26T05:30:13;16.50;99.90
3940;DHT22;1984;48.312;9.244;2023-06-26T05:32:40;16.60;99.90
3940;DHT22;1984;48.312;9.244;2023-06-26T05:35:06;16.70;99.90
3940;DHT22;1984;48.312;9.244;2023-06-26T05:37:33;16.90;99.90
3940;DHT22;1984;48.312;9.244;2023-06-26T05:40:00;17.00;99.90
3940;DHT22;1984;48.312;9.244;2023-06-26T05:42:27;17.10;99.90
3940;DHT22;1984;48.312;9.244;2023-06-26T05:44:53;17.30;99.90
3940;DHT22;1984;48.312;9.244;2023-06-26T05:47:19;17.40;99.90
3940;DHT22;1984;48.312;9.244;2023-06-26T05:49:45;17.60;99.90
3940;DHT22;1984;48.312;9.244;2023-06-26T05:52:11;17.70;99.90
3940;DHT22;1984;48.312;9.244;2023-06-26T05:54:37;17.80;99.90
3940;DHT22;1984;48.312;9.244;2023-06-26T05:57:03;18.00;99.90
3940;DHT22;1984;48.312;9.244;2023-06-26T05:59:31;18.20;99.90
3940;DHT22;1984;48.312;9.244;2023-06-26T06:01:56;18.30;99.90
3940;DHT22;1984;48.312;9.244;2023-06-26T06:04:22;18.50;99.90
3940;DHT22;1984;48.312;9.244;2023-06-26T06:06:47;18.80;99.90
3940;DHT22;1984;48.312;9.244;2023-06-26T06:09:13;19.00;99.90
3940;DHT22;1984;48.312;9.244;2023-06-26T06:11:38;19.20;99.90
3940;DHT22;1984;48.312;9.244;2023-06-26T06:14:11;19.30;99.90
3940;DHT22;1984;48.312;9.244;2023-06-26T06:16:36;19.50;99.90
3940;DHT22;1984;48.312;9.244;2023-06-26T06:19:03;19.70;99.90
3940;DHT22;1984;48.312;9.244;2023-06-26T06:21:29;19.90;99.90
3940;DHT22;1984;48.312;9.244;2023-06-26T06:23:55;20.10;99.90
3940;DHT22;1984;48.312;9.244;2023-06-26T06:26:21;20.30;99.90
3940;DHT22;1984;48.312;9.244;2023-06-26T06:28:46;20.60;99.90
3940;DHT22;1984;48.312;9.244;2023-06-26T06:31:12;20.90;99.90
3940;DHT22;1984;48.312;9.244;2023-06-26T06:33:37;21.10;99.90
3940;DHT22;1984;48.312;9.244;2023-06-26T06:36:03;21.50;99.90
3940;DHT22;1984;48.312;9.244;2023-06-26T06:38:29;21.70;99.90
3940;DHT22;1984;48.312;9.244;2023-06-26T06:40:54;22.10;99.90
3940;DHT22;1984;48.312;9.244;2023-06-26T06:43:19;22.50;99.90
3940;DHT22;1984;48.312;9.244;2023-06-26T06:45:45;22.90;99.90
3940;DHT22;1984;48.312;9.244;2023-06-26T06:48:11;23.20;99.90
3940;DHT22;1984;48.312;9.244;2023-06-26T06:50:36;23.60;99.90
3940;DHT22;1984;48.312;9.244;2023-06-26T06:53:02;23.90;99.90
3940;DHT22;1984;48.312;9.244;2023-06-26T06:55:27;24.40;99.90
3940;DHT22;1984;48.312;9.244;2023-06-26T06:57:53;24.90;99.90
3940;DHT22;1984;48.312;9.244;2023-06-26T07:00:18;25.40;99.90
3940;DHT22;1984;48.312;9.244;2023-06-26T07:02:45;25.90;99.90
3940;DHT22;1984;48.312;9.244;2023-06-26T07:05:12;26.50;99.90
3940;DHT22;1984;48.312;9.244;2023-06-26T07:07:38;27.10;99.90
3940;DHT22;1984;48.312;9.244;2023-06-26T07:10:09;27.70;99.90
3940;DHT22;1984;48.312;9.244;2023-06-26T07:12:36;28.30;99.80
3940;DHT22;1984;48.312;9.244;2023-06-26T07:15:04;28.80;98.20
3940;DHT22;1984;48.312;9.244;2023-06-26T07:17:30;29.20;97.40
3940;DHT22;1984;48.312;9.244;2023-06-26T07:19:56;29.80;95.90
3940;DHT22;1984;48.312;9.244;2023-06-26T07:22:21;30.20;92.90
3940;DHT22;1984;48.312;9.244;2023-06-26T07:24:47;30.10;90.50
3940;DHT22;1984;48.312;9.244;2023-06-26T07:27:16;30.60;91.40
3940;DHT22;1984;48.312;9.244;2023-06-26T07:29:44;31.20;89.10
3940;DHT22;1984;48.312;9.244;2023-06-26T07:32:10;31.60;85.90
3940;DHT22;1984;48.312;9.244;2023-06-26T07:34:36;31.80;85.70
3940;DHT22;1984;48.312;9.244;2023-06-26T07:37:01;31.90;84.30
3940;DHT22;1984;48.312;9.244;2023-06-26T07:39:27;32.30;81.40
3940;DHT22;1984;48.312;9.244;2023-06-26T07:44:18;32.90;77.40
3940;DHT22;1984;48.312;9.244;2023-06-26T07:46:44;33.00;78.40
3940;DHT22;1984;48.312;9.244;2023-06-26T07:49:10;33.30;77.70
3940;DHT22;1984;48.312;9.244;2023-06-26T07:51:36;33.50;77.60
3940;DHT22;1984;48.312;9.244;2023-06-26T07:54:01;33.60;75.90
3940;DHT22;1984;48.312;9.244;2023-06-26T07:56:27;33.70;76.80
3940;DHT22;1984;48.312;9.244;2023-06-26T07:58:52;33.60;74.80
3940;DHT22;1984;48.312;9.244;2023-06-26T08:01:18;33.70;74.10
3940;DHT22;1984;48.312;9.244;2023-06-26T08:03:43;33.70;74.10
3940;DHT22;1984;48.312;9.244;2023-06-26T08:06:09;33.60;72.40
3940;DHT22;1984;48.312;9.244;2023-06-26T08:08:35;33.40;72.80
3940;DHT22;1984;48.312;9.244;2023-06-26T08:11:00;33.20;73.60
3940;DHT22;1984;48.312;9.244;2023-06-26T08:13:26;33.00;73.10
3940;DHT22;1984;48.312;9.244;2023-06-26T08:15:51;33.20;73.40
3940;DHT22;1984;48.312;9.244;2023-06-26T08:18:18;33.40;72.30
3940;DHT22;1984;48.312;9.244;2023-06-26T08:20:43;33.80;72.20
3940;DHT22;1984;48.312;9.244;2023-06-26T08:23:09;34.20;71.80
3940;DHT22;1984;48.312;9.244;2023-06-26T08:25:34;34.50;71.90
3940;DHT22;1984;48.312;9.244;2023-06-26T08:28:00;34.60;69.50
3940;DHT22;1984;48.312;9.244;2023-06-26T08:30:25;34.70;68.60
3940;DHT22;1984;48.312;9.244;2023-06-26T08:32:54;35.10;69.90
3940;DHT22;1984;48.312;9.244;2023-06-26T08:35:20;35.10;67.70
3940;DHT22;1984;48.312;9.244;2023-06-26T08:37:46;35.10;68.50
3940;DHT22;1984;48.312;9.244;2023-06-26T08:40:12;35.30;66.70
3940;DHT22;1984;48.312;9.244;2023-06-26T08:42:38;35.60;67.20
3940;DHT22;1984;48.312;9.244;2023-06-26T08:45:04;35.50;67.90
3940;DHT22;1984;48.312;9.244;2023-06-26T08:47:30;35.40;66.10
3940;DHT22;1984;48.312;9.244;2023-06-26T08:50:13;35.50;67.80
3940;DHT22;1984;48.312;9.244;2023-06-26T08:55:15;36.00;66.20
3940;DHT22;1984;48.312;9.244;2023-06-26T08:57:41;36.20;66.10
3940;DHT22;1984;48.312;9.244;2023-06-26T09:00:07;36.40;66.20
3940;DHT22;1984;48.312;9.244;2023-06-26T09:02:35;36.50;66.60
3940;DHT22;1984;48.312;9.244;2023-06-26T09:05:02;36.60;63.70
3940;DHT22;1984;48.312;9.244;2023-06-26T09:07:28;36.50;64.20
3940;DHT22;1984;48.312;9.244;2023-06-26T09:09:54;36.20;63.80
3940;DHT22;1984;48.312;9.244;2023-06-26T09:12:20;36.20;63.70
3940;DHT22;1984;48.312;9.244;2023-06-26T09:14:46;35.90;63.60
3940;DHT22;1984;48.312;9.244;2023-06-26T09:17:13;35.70;63.90
3940;DHT22;1984;48.312;9.244;2023-06-26T09:19:38;35.70;65.30
3940;DHT22;1984;48.312;9.244;2023-06-26T09:22:04;36.00;63.90
3940;DHT22;1984;48.312;9.244;2023-06-26T09:24:30;36.10;63.10
3940;DHT22;1984;48.312;9.244;2023-06-26T09:26:55;36.10;62.90
3940;DHT22;1984;48.312;9.244;2023-06-26T09:29:21;36.10;63.20
3940;DHT22;1984;48.312;9.244;2023-06-26T09:31:47;36.00;63.40
3940;DHT22;1984;48.312;9.244;2023-06-26T09:34:12;36.20;61.90
3940;DHT22;1984;48.312;9.244;2023-06-26T09:36:38;36.60;62.40
3940;DHT22;1984;48.312;9.244;2023-06-26T09:39:06;36.20;61.00
3940;DHT22;1984;48.312;9.244;2023-06-26T09:41:36;35.90;61.10
3940;DHT22;1984;48.312;9.244;2023-06-26T09:44:04;35.90;62.30
3940;DHT22;1984;48.312;9.244;2023-06-26T09:46:30;35.80;60.80
3940;DHT22;1984;48.312;9.244;2023-06-26T09:49:03;36.20;60.00
3940;DHT22;1984;48.312;9.244;2023-06-26T09:51:33;36.80;61.30
3940;DHT22;1984;48.312;9.244;2023-06-26T09:54:00;37.10;58.60
3940;DHT22;1984;48.312;9.244;2023-06-26T09:56:27;37.70;60.00
3940;DHT22;1984;48.312;9.244;2023-06-26T09:58:56;37.70;57.50
3940;DHT22;1984;48.312;9.244;2023-06-26T10:01:23;37.60;58.10
3940;DHT22;1984;48.312;9.244;2023-06-26T10:03:49;37.70;58.70
3940;DHT22;1984;48.312;9.244;2023-06-26T10:06:15;37.90;57.50
3940;DHT22;1984;48.312;9.244;2023-06-26T10:08:43;38.00;57.00
3940;DHT22;1984;48.312;9.244;2023-06-26T10:11:19;38.10;58.00
3940;DHT22;1984;48.312;9.244;2023-06-26T10:13:48;38.00;57.00
3940;DHT22;1984;48.312;9.244;2023-06-26T10:16:23;37.50;58.00
3940;DHT22;1984;48.312;9.244;2023-06-26T10:18:52;36.60;59.20
3940;DHT22;1984;48.312;9.244;2023-06-26T10:21:20;36.60;59.00
3940;DHT22;1984;48.312;9.244;2023-06-26T10:23:47;36.80;60.20
3940;DHT22;1984;48.312;9.244;2023-06-26T10:26:14;37.10;58.70
3940;DHT22;1984;48.312;9.244;2023-06-26T10:28:40;37.10;57.40
3940;DHT22;1984;48.312;9.244;2023-06-26T10:31:07;37.00;59.50
3940;DHT22;1984;48.312;9.244;2023-06-26T10:33:35;36.60;56.60
3940;DHT22;1984;48.312;9.244;2023-06-26T10:36:28;36.00;59.20
3940;DHT22;1984;48.312;9.244;2023-06-26T10:39:12;35.80;60.70
3940;DHT22;1984;48.312;9.244;2023-06-26T10:41:39;34.20;60.60
3940;DHT22;1984;48.312;9.244;2023-06-26T10:44:12;33.80;63.30
3940;DHT22;1984;48.312;9.244;2023-06-26T10:46:54;33.80;64.90
3940;DHT22;1984;48.312;9.244;2023-06-26T10:49:25;34.30;65.60
3940;DHT22;1984;48.312;9.244;2023-06-26T10:51:51;35.00;62.50
3940;DHT22;1984;48.312;9.244;2023-06-26T10:54:18;34.90;61.40
3940;DHT22;1984;48.312;9.244;2023-06-26T10:56:47;34.00;62.30
3940;DHT22;1984;48.312;9.244;2023-06-26T10:59:21;33.10;63.80
3940;DHT22;1984;48.312;9.244;2023-06-26T11:02:00;32.20;64.90
3940;DHT22;1984;48.312;9.244;2023-06-26T11:04:55;32.10;66.90
3940;DHT22;1984;48.312;9.244;2023-06-26T11:07:25;32.60;68.30
3940;DHT22;1984;48.312;9.244;2023-06-26T11:10:02;32.60;66.50
3940;DHT22;1984;48.312;9.244;2023-06-26T11:12:40;32.40;64.90
3940;DHT22;1984;48.312;9.244;2023-06-26T11:15:17;32.40;66.90
3940;DHT22;1984;48.312;9.244;2023-06-26T11:17:44;32.70;66.30
3940;DHT22;1984;48.312;9.244;2023-06-26T11:20:11;33.00;66.10
3940;DHT22;1984;48.312;9.244;2023-06-26T11:22:38;33.20;65.90
3940;DHT22;1984;48.312;9.244;2023-06-26T11:25:05;33.40;64.30
3940;DHT22;1984;48.312;9.244;2023-06-26T11:27:40;33.10;65.30
3940;DHT22;1984;48.312;9.244;2023-06-26T11:30:07;33.00;66.20
3940;DHT22;1984;48.312;9.244;2023-06-26T11:32:33;32.70;64.80
3940;DHT22;1984;48.312;9.244;2023-06-26T11:35:01;32.70;65.50
3940;DHT22;1984;48.312;9.244;2023-06-26T11:37:27;32.40;67.00
3940;DHT22;1984;48.312;9.244;2023-06-26T11:39:53;32.20;67.50
3940;DHT22;1984;48.312;9.244;2023-06-26T11:42:19;31.90;67.60
3940;DHT22;1984;48.312;9.244;2023-06-26T11:44:45;32.10;69.40
3940;DHT22;1984;48.312;9.244;2023-06-26T11:47:19;32.10;69.80
3940;DHT22;1984;48.312;9.244;2023-06-26T11:49:47;31.90;70.80
3940;DHT22;1984;48.312;9.244;2023-06-26T11:52:13;31.70;72.90
3940;DHT22;1984;48.312;9.244;2023-06-26T11:54:39;31.70;72.70
3940;DHT22;1984;48.312;9.244;2023-06-26T11:57:05;31.70;74.10
3940;DHT22;1984;48.312;9.244;2023-06-26T11:59:35;31.80;73.10
3940;DHT22;1984;48.312;9.244;2023-06-26T12:02:07;31.60;70.70
3940;DHT22;1984;48.312;9.244;2023-06-26T12:04:36;31.10;70.70
3940;DHT22;1984;48.312;9.244;2023-06-26T12:07:03;30.80;73.60
3940;DHT22;1984;48.312;9.244;2023-06-26T12:09:31;30.70;74.90
3940;DHT22;1984;48.312;9.244;2023-06-26T12:11:59;30.60;75.00
3940;DHT22;1984;48.312;9.244;2023-06-26T12:14:25;30.30;75.80
3940;DHT22;1984;48.312;9.244;2023-06-26T12:16:53;30.00;77.40
3940;DHT22;1984;48.312;9.244;2023-06-26T12:19:24;29.80;77.20
3940;DHT22;1984;48.312;9.244;2023-06-26T12:21:50;29.60;77.50
3940;DHT22;1984;48.312;9.244;2023-06-26T12:24:19;29.50;79.30
3940;DHT22;1984;48.312;9.244;2023-06-26T12:26:49;29.40;79.10
3940;DHT22;1984;48.312;9.244;2023-06-26T12:29:16;29.40;80.10
3940;DHT22;1984;48.312;9.244;2023-06-26T12:31:53;29.40;81.40
3940;DHT22;1984;48.312;9.244;2023-06-26T12:34:33;29.60;80.40
3940;DHT22;1984;48.312;9.244;2023-06-26T12:37:09;29.70;80.40
3940;DHT22;1984;48.312;9.244;2023-06-26T12:39:51;29.80;78.30
3940;DHT22;1984;48.312;9.244;2023-06-26T12:42:19;29.70;78.50
3940;DHT22;1984;48.312;9.244;2023-06-26T12:44:46;29.60;78.00
3940;DHT22;1984;48.312;9.244;2023-06-26T12:47:12;29.50;78.20
3940;DHT22;1984;48.312;9.244;2023-06-26T12:49:41;29.50;78.20
3940;DHT22;1984;48.312;9.244;2023-06-26T12:52:09;29.70;79.40
3940;DHT22;1984;48.312;9.244;2023-06-26T12:54:36;29.70;78.70
3940;DHT22;1984;48.312;9.244;2023-06-26T12:57:02;29.70;79.20
3940;DHT22;1984;48.312;9.244;2023-06-26T12:59:32;29.70;78.90
3940;DHT22;1984;48.312;9.244;2023-06-26T13:01:58;29.80;79.20
3940;DHT22;1984;48.312;9.244;2023-06-26T13:04:24;29.60;78.10
3940;DHT22;1984;48.312;9.244;2023-06-26T13:06:50;29.60;79.70
3940;DHT22;1984;48.312;9.244;2023-06-26T13:09:16;29.70;79.60
3940;DHT22;1984;48.312;9.244;2023-06-26T13:11:42;29.70;79.00
3940;DHT22;1984;48.312;9.244;2023-06-26T13:14:08;29.60;79.80
3940;DHT22;1984;48.312;9.244;2023-06-26T13:16:33;29.60;79.80
3940;DHT22;1984;48.312;9.244;2023-06-26T13:18:59;29.40;79.90
3940;DHT22;1984;48.312;9.244;2023-06-26T13:21:27;29.30;81.20
3940;DHT22;1984;48.312;9.244;2023-06-26T13:23:52;29.30;80.70
3940;DHT22;1984;48.312;9.244;2023-06-26T13:26:19;29.20;80.00
3940;DHT22;1984;48.312;9.244;2023-06-26T13:28:45;29.30;80.90
3940;DHT22;1984;48.312;9.244;2023-06-26T13:31:10;29.40;80.30
3940;DHT22;1984;48.312;9.244;2023-06-26T13:33:36;29.50;81.00
3940;DHT22;1984;48.312;9.244;2023-06-26T13:36:01;29.50;81.40
3940;DHT22;1984;48.312;9.244;2023-06-26T13:38:30;29.40;79.40
3940;DHT22;1984;48.312;9.244;2023-06-26T13:40:55;29.40;80.60
3940;DHT22;1984;48.312;9.244;2023-06-26T13:43:22;29.60;80.80
3940;DHT22;1984;48.312;9.244;2023-06-26T13:45:51;29.60;80.60
3940;DHT22;1984;48.312;9.244;2023-06-26T13:48:17;29.60;80.70
3940;DHT22;1984;48.312;9.244;2023-06-26T13:50:43;29.60;83.00
3940;DHT22;1984;48.312;9.244;2023-06-26T13:53:08;29.70;80.50
3940;DHT22;1984;48.312;9.244;2023-06-26T13:55:34;29.80;81.40
3940;DHT22;1984;48.312;9.244;2023-06-26T13:58:00;29.70;80.50
3940;DHT22;1984;48.312;9.244;2023-06-26T14:00:31;29.80;81.50
3940;DHT22;1984;48.312;9.244;2023-06-26T14:03:02;29.90;81.50
3940;DHT22;1984;48.312;9.244;2023-06-26T14:05:29;29.70;82.40
3940;DHT22;1984;48.312;9.244;2023-06-26T14:07:54;29.70;82.10
3940;DHT22;1984;48.312;9.244;2023-06-26T14:10:23;29.70;83.60
3940;DHT22;1984;48.312;9.244;2023-06-26T14:12:49;29.70;81.80
3940;DHT22;1984;48.312;9.244;2023-06-26T14:15:15;29.90;82.90
3940;DHT22;1984;48.312;9.244;2023-06-26T14:17:41;29.80;82.20
3940;DHT22;1984;48.312;9.244;2023-06-26T14:20:07;29.70;82.40
3940;DHT22;1984;48.312;9.244;2023-06-26T14:22:41;29.60;82.70
3940;DHT22;1984;48.312;9.244;2023-06-26T14:25:07;29.50;82.70
3940;DHT22;1984;48.312;9.244;2023-06-26T14:27:33;29.40;83.50
3940;DHT22;1984;48.312;9.244;2023-06-26T14:29:59;29.30;84.80
3940;DHT22;1984;48.312;9.244;2023-06-26T14:32:25;29.30;85.00
3940;DHT22;1984;48.312;9.244;2023-06-26T14:34:50;29.50;83.60
3940;DHT22;1984;48.312;9.244;2023-06-26T14:37:16;29.50;82.20
3940;DHT22;1984;48.312;9.244;2023-06-26T14:39:44;29.50;83.10
3940;DHT22;1984;48.312;9.244;2023-06-26T14:42:09;29.40;82.00
3940;DHT22;1984;48.312;9.244;2023-06-26T14:44:35;29.30;83.80
3940;DHT22;1984;48.312;9.244;2023-06-26T14:47:00;29.20;83.90
3940;DHT22;1984;48.312;9.244;2023-06-26T14:49:27;29.00;84.50
3940;DHT22;1984;48.312;9.244;2023-06-26T14:51:52;29.00;84.30
3940;DHT22;1984;48.312;9.244;2023-06-26T14:54:18;29.00;86.20
3940;DHT22;1984;48.312;9.244;2023-06-26T14:56:43;29.00;84.90
3940;DHT22;1984;48.312;9.244;2023-06-26T14:59:11;29.00;84.10
3940;DHT22;1984;48.312;9.244;2023-06-26T15:01:36;28.80;83.70
3940;DHT22;1984;48.312;9.244;2023-06-26T15:04:02;28.50;84.70
3940;DHT22;1984;48.312;9.244;2023-06-26T15:06:27;28.40;85.30
3940;DHT22;1984;48.312;9.244;2023-06-26T15:08:53;28.20;85.20
3940;DHT22;1984;48.312;9.244;2023-06-26T15:11:18;28.10;86.60
3940;DHT22;1984;48.312;9.244;2023-06-26T15:13:44;28.00;87.20
3940;DHT22;1984;48.312;9.244;2023-06-26T15:16:09;28.00;87.70
3940;DHT22;1984;48.312;9.244;2023-06-26T15:18:35;28.00;88.80
3940;DHT22;1984;48.312;9.244;2023-06-26T15:21:01;28.10;87.80
3940;DHT22;1984;48.312;9.244;2023-06-26T15:23:28;28.20;88.30
3940;DHT22;1984;48.312;9.244;2023-06-26T15:25:54;28.20;87.90
3940;DHT22;1984;48.312;9.244;2023-06-26T15:28:19;28.20;87.10
3940;DHT22;1984;48.312;9.244;2023-06-26T15:30:45;28.20;87.30
3940;DHT22;1984;48.312;9.244;2023-06-26T15:33:11;28.10;87.30
3940;DHT22;1984;48.312;9.244;2023-06-26T15:35:37;28.20;86.90
3940;DHT22;1984;48.312;9.244;2023-06-26T15:38:02;28.20;87.00
3940;DHT22;1984;48.312;9.244;2023-06-26T15:40:28;28.10;86.90
3940;DHT22;1984;48.312;9.244;2023-06-26T15:42:53;27.90;86.70
3940;DHT22;1984;48.312;9.244;2023-06-26T15:45:19;27.80;86.60
3940;DHT22;1984;48.312;9.244;2023-06-26T15:47:48;27.70;87.00
3940;DHT22;1984;48.312;9.244;2023-06-26T15:50:14;27.50;87.30
3940;DHT22;1984;48.312;9.244;2023-06-26T15:52:39;27.40;87.40
3940;DHT22;1984;48.312;9.244;2023-06-26T15:55:05;27.40;87.80
3940;DHT22;1984;48.312;9.244;2023-06-26T15:57:31;27.40;87.40
3940;DHT22;1984;48.312;9.244;2023-06-26T15:59:58;27.40;86.80
3940;DHT22;1984;48.312;9.244;2023-06-26T16:02:23;27.30;87.10
3940;DHT22;1984;48.312;9.244;2023-06-26T16:04:49;27.30;87.20
3940;DHT22;1984;48.312;9.244;2023-06-26T16:07:15;27.10;87.00
3940;DHT22;1984;48.312;9.244;2023-06-26T16:09:40;27.00;87.60
3940;DHT22;1984;48.312;9.244;2023-06-26T16:12:06;26.90;87.30